FAHS/HDS METAR and TAF weather

Enter ICAO airport designator
Station Type Date Time Source
FAHS METAR 2018/01/16 09:00 UTC NOAA

FAHS 160900Z AUTO 19012KT //// // ////// ///// Q1020


Station Type Date Time Source
FAHS Decoded METAR 2018/01/16 09:00 UTC NOAA

Hoedspruit, South Africa (FAHS) 24-22S 031-02E 500M
Jan 16, 2018 - 04:00 AM EST / 2018.01.16 0900 UTC
Wind: from the S (190 degrees) at 14 MPH (12 KT):0
Pressure (altimeter): 30.12 in. Hg (1020 hPa)
ob: FAHS 160900Z AUTO 19012KT //// // ////// ///// Q1020
cycle: 9

Station Type Date Time Source
FAHS TAF 2017/05/23 04:01 UTC NOAA

TAF FAHS 230300Z 2304/2315 VRB02KT CAVOK TX29/2312ZTN12/2304Z


Example: see airport list